VIV4292 MMMY-MMMD
Flight info
| Callsign | VIV4292 |
|---|---|
| Flight time | N/A |
| Altitude | 37000 |
| Route | URSUR1A MTY UT11 VESKO UT22 XUBSU XUBSU1B |
| Aircraft | A321/M-SDE3FGHIRWY/LB1 |
Departure
| Time | 2026-05-08 17:50 |
|---|---|
| Airport | Monterrey International Airport (MMMY) |
Arrival
| Time | N/A |
|---|---|
| Airport | Manuel Crescencio Rejón International Airport (MMMD) |
| Time | Latitude | Longitude | Altitude | Speed | Heading |
|---|---|---|---|---|---|
| 2026-05-08 17:08 | 25.78045 | -100.11816 | 1331 ft | 0 kts | 212° |
| 2026-05-08 17:39 | 25.78052 | -100.11811 | 1333 ft | 3 kts | 211° |
| 2026-05-08 17:39 | 25.78069 | -100.11799 | 1331 ft | 3 kts | 226° |
| 2026-05-08 17:39 | 25.78079 | -100.11783 | 1331 ft | 3 kts | 264° |
| 2026-05-08 17:39 | 25.78077 | -100.11763 | 1335 ft | 3 kts | 297° |
| 2026-05-08 17:40 | 25.78071 | -100.11750 | 1333 ft | 1 kts | 302° |
| 2026-05-08 17:40 | 25.78070 | -100.11749 | 1332 ft | 0 kts | 302° |
| 2026-05-08 17:45 | 25.78071 | -100.11751 | 1333 ft | 1 kts | 302° |
| 2026-05-08 17:45 | 25.78079 | -100.11765 | 1331 ft | 3 kts | 302° |
| 2026-05-08 17:45 | 25.78093 | -100.11791 | 1334 ft | 5 kts | 302° |
| 2026-05-08 17:45 | 25.78114 | -100.11828 | 1331 ft | 6 kts | 302° |
| 2026-05-08 17:46 | 25.78146 | -100.11865 | 1331 ft | 7 kts | 334° |
| 2026-05-08 17:46 | 25.78195 | -100.11853 | 1331 ft | 8 kts | 28° |
| 2026-05-08 17:46 | 25.78246 | -100.11820 | 1331 ft | 9 kts | 31° |
| 2026-05-08 17:46 | 25.78304 | -100.11782 | 1333 ft | 11 kts | 31° |
| 2026-05-08 17:47 | 25.78320 | -100.11771 | 1331 ft | 3 kts | 31° |
| 2026-05-08 17:47 | 25.78340 | -100.11757 | 1331 ft | 4 kts | 32° |
| 2026-05-08 17:47 | 25.78370 | -100.11736 | 1331 ft | 6 kts | 32° |
| 2026-05-08 17:47 | 25.78394 | -100.11718 | 1331 ft | 7 kts | 36° |
| 2026-05-08 17:48 | 25.78388 | -100.11675 | 1334 ft | 0 kts | 117° |
| 2026-05-08 17:49 | 25.78388 | -100.11674 | 1334 ft | 2 kts | 117° |
| 2026-05-08 17:50 | 25.78255 | -100.11429 | 1331 ft | 75 kts | 121° |
| 2026-05-08 17:50 | 25.77865 | -100.10720 | 1331 ft | 137 kts | 120° |
| 2026-05-08 17:50 | 25.77286 | -100.09703 | 1599 ft | 165 kts | 122° |
| 2026-05-08 17:50 | 25.76669 | -100.08602 | 2243 ft | 171 kts | 121° |
| 2026-05-08 17:51 | 25.76057 | -100.07385 | 2556 ft | 191 kts | 119° |
| 2026-05-08 17:51 | 25.75392 | -100.06015 | 2761 ft | 212 kts | 118° |
| 2026-05-08 17:51 | 25.74662 | -100.04511 | 2907 ft | 233 kts | 118° |
| 2026-05-08 17:51 | 25.73840 | -100.02833 | 3147 ft | 257 kts | 118° |
| 2026-05-08 17:52 | 25.72969 | -100.01069 | 3857 ft | 264 kts | 118° |
| 2026-05-08 17:52 | 25.72077 | -99.99271 | 4633 ft | 268 kts | 118° |
| 2026-05-08 17:52 | 25.70237 | -99.95601 | 5984 ft | 281 kts | 120° |
| 2026-05-08 17:53 | 25.69272 | -99.93682 | 6607 ft | 287 kts | 120° |
| 2026-05-08 17:53 | 25.68365 | -99.91698 | 7228 ft | 292 kts | 108° |
| 2026-05-08 17:53 | 25.68199 | -99.89460 | 7838 ft | 296 kts | 78° |
| 2026-05-08 17:53 | 25.68930 | -99.87326 | 8481 ft | 298 kts | 64° |
| 2026-05-08 17:54 | 25.69509 | -99.85114 | 9109 ft | 302 kts | 84° |
| 2026-05-08 17:54 | 25.69615 | -99.82789 | 9770 ft | 304 kts | 95° |
| 2026-05-08 17:54 | 25.69208 | -99.80468 | 10207 ft | 314 kts | 109° |
| 2026-05-08 17:54 | 25.68484 | -99.78093 | 10333 ft | 336 kts | 109° |
| 2026-05-08 17:55 | 25.67751 | -99.75560 | 10582 ft | 351 kts | 108° |
| 2026-05-08 17:55 | 25.67031 | -99.72947 | 11079 ft | 357 kts | 108° |
| 2026-05-08 17:55 | 25.66315 | -99.70288 | 11639 ft | 362 kts | 108° |
| 2026-05-08 17:55 | 25.65593 | -99.67593 | 12194 ft | 367 kts | 109° |
| 2026-05-08 17:56 | 25.64860 | -99.64866 | 12742 ft | 372 kts | 109° |
| 2026-05-08 17:56 | 25.64110 | -99.62098 | 13277 ft | 377 kts | 109° |
| 2026-05-08 17:56 | 25.63347 | -99.59305 | 13818 ft | 381 kts | 110° |
| 2026-05-08 17:56 | 25.62570 | -99.56482 | 14330 ft | 385 kts | 110° |
| 2026-05-08 17:57 | 25.61787 | -99.53640 | 14855 ft | 388 kts | 110° |
| 2026-05-08 17:57 | 25.60998 | -99.50771 | 15396 ft | 391 kts | 110° |
| 2026-05-08 17:57 | 25.60211 | -99.47916 | 15928 ft | 394 kts | 110° |
| 2026-05-08 17:57 | 25.59407 | -99.45000 | 16477 ft | 397 kts | 110° |
| 2026-05-08 17:58 | 25.58597 | -99.42063 | 17033 ft | 400 kts | 110° |
| 2026-05-08 17:58 | 25.57780 | -99.39101 | 17571 ft | 404 kts | 110° |
| 2026-05-08 17:58 | 25.56955 | -99.36116 | 18111 ft | 407 kts | 110° |
| 2026-05-08 17:58 | 25.56123 | -99.33104 | 18592 ft | 411 kts | 110° |
| 2026-05-08 17:59 | 25.55285 | -99.30079 | 19055 ft | 414 kts | 111° |
| 2026-05-08 17:59 | 25.54434 | -99.27012 | 19536 ft | 416 kts | 111° |
| 2026-05-08 17:59 | 25.53582 | -99.23936 | 20023 ft | 419 kts | 111° |
| 2026-05-08 17:59 | 25.52724 | -99.20838 | 20500 ft | 422 kts | 111° |
| 2026-05-08 18:00 | 25.51857 | -99.17711 | 20966 ft | 426 kts | 111° |
| 2026-05-08 18:00 | 25.50103 | -99.11401 | 21919 ft | 432 kts | 111° |
| 2026-05-08 18:00 | 25.49216 | -99.08212 | 22377 ft | 435 kts | 112° |
| 2026-05-08 18:01 | 25.48324 | -99.05007 | 22832 ft | 438 kts | 112° |
| 2026-05-08 18:01 | 25.47419 | -99.01773 | 23261 ft | 440 kts | 112° |
| 2026-05-08 18:01 | 25.46511 | -98.98528 | 23645 ft | 443 kts | 112° |
| 2026-05-08 18:01 | 25.45595 | -98.95256 | 23992 ft | 446 kts | 112° |
| 2026-05-08 18:02 | 25.44683 | -98.92010 | 24322 ft | 449 kts | 112° |
| 2026-05-08 18:02 | 25.44065 | -98.89815 | 24549 ft | 451 kts | 112° |
| 2026-05-08 18:02 | 25.42813 | -98.85361 | 24993 ft | 455 kts | 112° |
| 2026-05-08 18:02 | 25.41872 | -98.82002 | 25323 ft | 458 kts | 112° |
| 2026-05-08 18:03 | 25.40930 | -98.78628 | 25655 ft | 461 kts | 112° |
| 2026-05-08 18:03 | 25.39981 | -98.75237 | 25981 ft | 463 kts | 112° |
| 2026-05-08 18:03 | 25.39021 | -98.71818 | 26301 ft | 466 kts | 112° |
| 2026-05-08 18:03 | 25.38055 | -98.68388 | 26622 ft | 469 kts | 112° |
| 2026-05-08 18:04 | 25.37079 | -98.64937 | 26936 ft | 471 kts | 112° |
| 2026-05-08 18:04 | 25.36094 | -98.61467 | 27252 ft | 474 kts | 112° |
| 2026-05-08 18:04 | 25.35105 | -98.57981 | 27566 ft | 477 kts | 112° |
| 2026-05-08 18:04 | 25.34112 | -98.54467 | 27881 ft | 480 kts | 112° |
| 2026-05-08 18:05 | 25.33118 | -98.50941 | 28186 ft | 482 kts | 112° |
| 2026-05-08 18:05 | 25.32117 | -98.47392 | 28491 ft | 485 kts | 112° |
| 2026-05-08 18:05 | 25.31104 | -98.43820 | 28803 ft | 488 kts | 112° |
| 2026-05-08 18:05 | 25.30083 | -98.40237 | 29073 ft | 490 kts | 112° |
| 2026-05-08 18:06 | 25.29055 | -98.36635 | 29368 ft | 493 kts | 112° |
| 2026-05-08 18:06 | 25.28033 | -98.33057 | 29641 ft | 495 kts | 112° |
| 2026-05-08 18:06 | 25.26993 | -98.29418 | 29920 ft | 498 kts | 112° |
| 2026-05-08 18:06 | 25.25949 | -98.25763 | 30146 ft | 500 kts | 112° |
| 2026-05-08 18:07 | 25.24900 | -98.22094 | 30383 ft | 502 kts | 112° |
| 2026-05-08 18:07 | 25.23843 | -98.18406 | 30633 ft | 505 kts | 112° |
| 2026-05-08 18:07 | 25.22780 | -98.14698 | 30882 ft | 507 kts | 112° |
| 2026-05-08 18:07 | 25.21715 | -98.10985 | 31127 ft | 509 kts | 112° |
| 2026-05-08 18:08 | 25.20645 | -98.07251 | 31382 ft | 511 kts | 112° |
| 2026-05-08 18:08 | 25.19573 | -98.03515 | 31729 ft | 510 kts | 112° |
| 2026-05-08 18:08 | 25.18500 | -97.99783 | 32071 ft | 509 kts | 112° |
| 2026-05-08 18:08 | 25.17431 | -97.96063 | 32423 ft | 509 kts | 112° |
| 2026-05-08 18:09 | 25.16360 | -97.92339 | 32773 ft | 508 kts | 112° |
| 2026-05-08 18:09 | 25.15290 | -97.88623 | 33111 ft | 508 kts | 112° |
| 2026-05-08 18:09 | 25.14219 | -97.84912 | 33457 ft | 507 kts | 112° |
| 2026-05-08 18:09 | 25.13148 | -97.81207 | 33801 ft | 507 kts | 112° |
| 2026-05-08 18:10 | 25.12077 | -97.77498 | 34107 ft | 507 kts | 112° |
| 2026-05-08 18:10 | 25.11007 | -97.73799 | 34394 ft | 506 kts | 112° |
| 2026-05-08 18:10 | 25.09937 | -97.70107 | 34702 ft | 506 kts | 112° |
| 2026-05-08 18:10 | 25.08866 | -97.66411 | 35002 ft | 505 kts | 112° |
| 2026-05-08 18:11 | 25.07795 | -97.62728 | 35291 ft | 505 kts | 112° |
| 2026-05-08 18:11 | 25.06721 | -97.59037 | 35599 ft | 504 kts | 112° |
| 2026-05-08 18:11 | 25.05651 | -97.55362 | 35887 ft | 504 kts | 112° |
| 2026-05-08 18:11 | 25.04584 | -97.51686 | 36168 ft | 503 kts | 112° |
| 2026-05-08 18:12 | 25.03518 | -97.48013 | 36449 ft | 502 kts | 112° |
| 2026-05-08 18:12 | 25.02468 | -97.44399 | 36719 ft | 502 kts | 112° |
| 2026-05-08 18:12 | 25.01400 | -97.40734 | 36867 ft | 502 kts | 112° |
| 2026-05-08 18:12 | 25.00334 | -97.37077 | 36900 ft | 500 kts | 112° |
| 2026-05-08 18:13 | 24.98201 | -97.29791 | 36899 ft | 499 kts | 112° |
| 2026-05-08 18:13 | 24.96058 | -97.22521 | 36899 ft | 498 kts | 112° |
| 2026-05-08 18:14 | 24.93918 | -97.15265 | 36901 ft | 498 kts | 112° |
| 2026-05-08 18:14 | 24.91778 | -97.08003 | 36903 ft | 498 kts | 112° |
| 2026-05-08 18:15 | 24.90001 | -97.01971 | 36905 ft | 498 kts | 112° |
| 2026-05-08 18:15 | 24.87855 | -96.94709 | 36912 ft | 498 kts | 112° |
| 2026-05-08 18:16 | 24.85345 | -96.86230 | 36921 ft | 498 kts | 112° |
| 2026-05-08 18:16 | 24.83557 | -96.80203 | 36923 ft | 498 kts | 112° |
| 2026-05-08 18:17 | 24.81050 | -96.71781 | 36926 ft | 498 kts | 112° |
| 2026-05-08 18:17 | 24.78892 | -96.64546 | 36921 ft | 497 kts | 112° |
| 2026-05-08 18:18 | 24.77082 | -96.58486 | 36924 ft | 497 kts | 112° |
| 2026-05-08 18:18 | 24.74927 | -96.51311 | 36914 ft | 497 kts | 112° |
| 2026-05-08 18:19 | 24.72765 | -96.44089 | 36921 ft | 497 kts | 112° |
| 2026-05-08 18:19 | 24.70600 | -96.36870 | 36925 ft | 497 kts | 112° |
| 2026-05-08 18:20 | 24.68425 | -96.29656 | 36927 ft | 497 kts | 112° |
| 2026-05-08 18:20 | 24.66244 | -96.22445 | 36915 ft | 497 kts | 112° |
| 2026-05-08 18:21 | 24.64067 | -96.15237 | 36913 ft | 497 kts | 112° |
| 2026-05-08 18:21 | 24.61891 | -96.08042 | 36911 ft | 496 kts | 112° |
| 2026-05-08 18:22 | 24.59718 | -96.00878 | 36913 ft | 496 kts | 112° |
| 2026-05-08 18:22 | 24.57528 | -95.93683 | 36911 ft | 496 kts | 112° |
| 2026-05-08 18:23 | 24.55343 | -95.86494 | 36913 ft | 496 kts | 112° |
| 2026-05-08 18:23 | 24.53160 | -95.79304 | 36916 ft | 496 kts | 112° |
| 2026-05-08 18:24 | 24.50966 | -95.72121 | 36914 ft | 496 kts | 112° |
| 2026-05-08 18:24 | 24.48767 | -95.64948 | 36911 ft | 496 kts | 112° |
| 2026-05-08 18:25 | 24.46564 | -95.57773 | 36915 ft | 496 kts | 112° |
| 2026-05-08 18:25 | 24.44378 | -95.50649 | 36911 ft | 495 kts | 112° |
| 2026-05-08 18:26 | 24.42176 | -95.43488 | 36912 ft | 495 kts | 112° |
| 2026-05-08 18:26 | 24.39970 | -95.36331 | 36916 ft | 495 kts | 112° |
| 2026-05-08 18:27 | 24.38135 | -95.30387 | 36910 ft | 495 kts | 112° |
| 2026-05-08 18:27 | 24.35548 | -95.22030 | 36910 ft | 495 kts | 112° |
| 2026-05-08 18:28 | 24.33328 | -95.14890 | 36912 ft | 494 kts | 112° |
| 2026-05-08 18:28 | 24.31106 | -95.07759 | 36916 ft | 494 kts | 112° |
| 2026-05-08 18:29 | 24.28898 | -95.00681 | 36910 ft | 494 kts | 112° |
| 2026-05-08 18:29 | 24.26676 | -94.93564 | 36909 ft | 494 kts | 112° |
| 2026-05-08 18:30 | 24.24449 | -94.86445 | 36915 ft | 493 kts | 112° |
| 2026-05-08 18:30 | 24.22219 | -94.79337 | 36915 ft | 493 kts | 112° |
| 2026-05-08 18:31 | 24.19987 | -94.72240 | 36917 ft | 493 kts | 112° |
| 2026-05-08 18:31 | 24.17760 | -94.65149 | 36919 ft | 492 kts | 112° |
| 2026-05-08 18:32 | 24.15488 | -94.58084 | 36915 ft | 490 kts | 117° |
| 2026-05-08 18:32 | 24.12172 | -94.51654 | 36916 ft | 484 kts | 126° |
| 2026-05-08 18:33 | 24.08614 | -94.45396 | 36915 ft | 484 kts | 126° |
| 2026-05-08 18:33 | 24.05075 | -94.39129 | 36911 ft | 484 kts | 126° |
| 2026-05-08 18:34 | 24.01553 | -94.32903 | 36913 ft | 484 kts | 126° |
| 2026-05-08 18:34 | 23.98570 | -94.27663 | 36913 ft | 484 kts | 126° |